Time;durP1;ratioP1;P1;durP2;ratioP2;P2;SDS_P1;SDS_P2;PMS_P1;PMS_P2;Temp;Humidity;BMP_temperature;BMP_pressure;BME280_temperature;BME280_humidity;BME280_pressure;Samples;Min_cycle;Max_cycle;Signal;HPM_P1;HPM_P2
2022/12/26 00:02:00;;;;;;;2.40;2.20;;;;;;;18.82;48.31;97300.91;5006852;28;20215;-95
2022/12/26 00:04:27;;;;;;;2.30;2.10;;;;;;;18.80;47.93;97295.75;5017004;28;20191;-94
2022/12/26 00:07:14;;;;;;;2.20;2.10;;;;;;;19.38;48.24;97433.78;5010646;28;20222;-94
2022/12/26 00:09:41;;;;;;;2.80;2.60;;;;;;;19.29;48.05;97402.88;5010349;28;20312;-95
2022/12/26 00:12:07;;;;;;;2.80;2.60;;;;;;;19.09;48.07;97381.72;4993739;28;20196;-94
2022/12/26 00:14:34;;;;;;;2.80;2.60;;;;;;;17.49;48.31;97081.41;4992972;28;20204;-92
2022/12/26 00:17:01;;;;;;;2.50;2.30;;;;;;;17.07;48.18;97013.69;4988014;28;20234;-94
2022/12/26 00:19:28;;;;;;;2.40;2.20;;;;;;;18.29;48.31;97209.00;5019558;28;20214;-93
2022/12/26 00:21:56;;;;;;;2.50;2.30;;;;;;;17.35;47.60;97049.50;5008328;28;20191;-95
2022/12/26 00:24:23;;;;;;;2.50;2.30;;;;;;;18.02;48.13;97165.59;4979842;28;20179;-94
2022/12/26 00:26:49;;;;;;;2.50;2.30;;;;;;;18.92;48.18;97318.28;5002161;28;20183;-94
2022/12/26 00:29:16;;;;;;;2.50;2.30;;;;;;;18.44;48.28;97261.34;4997194;28;20202;-95
2022/12/26 00:31:42;;;;;;;2.50;2.30;;;;;;;19.45;48.26;97423.84;4996888;28;20188;-92
2022/12/26 00:34:09;;;;;;;2.53;2.33;;;;;;;19.18;48.04;97374.41;5004091;28;20191;-95
2022/12/26 00:36:36;;;;;;;2.47;2.27;;;;;;;19.22;48.11;97376.25;5009381;28;20231;-94
2022/12/26 00:39:03;;;;;;;2.50;2.30;;;;;;;19.14;48.11;97371.72;5004945;28;20190;-93
2022/12/26 00:41:30;;;;;;;2.30;2.10;;;;;;;18.09;48.05;97204.03;5017426;28;20247;-94
2022/12/26 00:43:56;;;;;;;2.50;2.30;;;;;;;18.44;48.13;97270.66;5010190;28;20181;-94
2022/12/26 00:46:25;;;;;;;2.73;2.37;;;;;;;18.48;48.03;97247.94;5016040;28;20175;-95
2022/12/26 00:48:52;;;;;;;2.63;2.43;;;;;;;19.22;48.00;97391.53;5023044;28;20179;-95
2022/12/26 00:51:19;;;;;;;2.37;2.17;;;;;;;18.61;48.01;97302.66;4987556;28;20274;-94
2022/12/26 00:53:46;;;;;;;2.53;2.33;;;;;;;19.00;48.06;97357.59;5026971;28;20199;-94
2022/12/26 00:56:12;;;;;;;2.63;2.43;;;;;;;19.30;48.51;97409.72;4978106;28;20180;-95
2022/12/26 00:58:40;;;;;;;2.43;2.20;;;;;;;18.97;48.25;97342.19;4996366;28;20282;-93
2022/12/26 01:01:19;;;;;;;2.60;2.40;;;;;;;18.44;48.11;97293.56;5017355;28;20207;-94
2022/12/26 01:06:21;;;;;;;2.93;2.40;;;;;;;18.77;48.13;97327.91;4318506;26;20201;-93
2022/12/26 01:08:47;;;;;;;2.77;2.57;;;;;;;19.11;48.06;97417.44;4990406;28;20200;-93
2022/12/26 01:11:15;;;;;;;2.47;2.27;;;;;;;20.06;48.11;97545.88;4995293;28;20219;-93
2022/12/26 01:13:41;;;;;;;2.63;2.43;;;;;;;18.86;48.01;97346.91;4962333;28;20231;-92
2022/12/26 01:16:08;;;;;;;2.70;2.50;;;;;;;19.20;48.20;97417.78;4984001;28;20267;-94
2022/12/26 01:18:35;;;;;;;2.47;2.27;;;;;;;18.85;48.03;97367.22;4971064;28;20203;-93
2022/12/26 01:21:07;;;;;;;2.43;2.23;;;;;;;19.29;48.38;97433.44;4985953;28;20204;-94
2022/12/26 01:23:34;;;;;;;2.53;2.33;;;;;;;17.52;47.91;97124.69;5018778;23;20219;-92
2022/12/26 01:26:00;;;;;;;2.70;2.50;;;;;;;19.12;48.12;97406.44;4951777;28;20187;-95
2022/12/26 01:28:46;;;;;;;2.40;2.20;;;;;;;19.14;48.37;97404.81;4961299;28;20192;-93
2022/12/26 01:31:13;;;;;;;2.70;2.27;;;;;;;18.45;48.04;97308.00;4980459;28;20204;-94
2022/12/26 01:33:39;;;;;;;2.60;2.40;;;;;;;18.95;48.25;97369.31;4983353;28;20186;-92
2022/12/26 01:36:06;;;;;;;2.50;2.30;;;;;;;17.92;47.83;97189.81;4980014;28;20188;-95
2022/12/26 01:38:33;;;;;;;2.47;2.27;;;;;;;18.08;47.97;97214.16;4965209;28;20243;-91
2022/12/26 01:41:18;;;;;;;2.60;2.40;;;;;;;19.49;48.08;97452.88;4983580;28;20204;-94
2022/12/26 01:43:52;;;;;;;2.60;2.40;;;;;;;17.48;48.17;97143.19;4956756;28;20238;-93
2022/12/26 01:46:25;;;;;;;2.50;2.30;;;;;;;18.52;48.02;97299.78;4985108;28;20184;-94
2022/12/26 01:48:53;;;;;;;2.77;2.57;;;;;;;19.29;48.08;97425.78;4979113;28;20179;-94
2022/12/26 01:51:20;;;;;;;2.60;2.40;;;;;;;19.56;47.94;97478.63;4945582;28;20200;-92
2022/12/26 01:53:49;;;;;;;2.63;2.43;;;;;;;20.11;48.08;97552.88;4978213;28;20191;-93
2022/12/26 01:56:23;;;;;;;2.60;2.40;;;;;;;18.54;48.11;97293.09;4951820;28;20183;-94
2022/12/26 01:59:04;;;;;;;2.67;2.47;;;;;;;18.52;48.36;97308.28;4951971;28;20203;-93
2022/12/26 02:01:31;;;;;;;2.63;2.43;;;;;;;18.56;48.19;97317.78;4970224;28;20179;-92
2022/12/26 02:06:43;;;;;;;2.47;2.27;;;;;;;17.81;48.02;97147.88;4974697;28;20188;-94
2022/12/26 02:09:10;;;;;;;2.50;2.30;;;;;;;18.29;48.16;97244.63;4977521;28;20240;-92
2022/12/26 02:11:38;;;;;;;2.60;2.40;;;;;;;18.57;47.69;97280.47;4975487;28;20192;-95
2022/12/26 02:14:05;;;;;;;2.67;2.20;;;;;;;18.44;47.87;97281.69;4960333;28;20199;-96
2022/12/26 02:16:32;;;;;;;2.60;2.40;;;;;;;19.11;48.04;97379.25;4967010;28;20187;-95
2022/12/26 02:18:58;;;;;;;2.70;2.50;;;;;;;19.16;47.88;97398.13;4971139;28;20226;-95
2022/12/26 02:21:31;;;;;;;2.57;2.37;;;;;;;20.15;48.10;97547.09;4945986;28;20199;-92
2022/12/26 02:24:10;;;;;;;2.67;2.47;;;;;;;19.58;48.09;97456.63;4988814;28;20199;-94
2022/12/26 02:26:40;;;;;;;2.50;2.30;;;;;;;20.16;47.84;97541.16;4983730;28;20206;-94
2022/12/26 02:29:34;;;;;;;2.47;2.27;;;;;;;20.15;48.08;97536.91;4974590;28;20195;-94
2022/12/26 02:32:13;;;;;;;2.57;2.37;;;;;;;20.16;47.94;97543.72;4966899;28;20199;-94
2022/12/26 02:34:58;;;;;;;2.73;2.53;;;;;;;20.16;47.85;97542.88;4981925;28;20183;-94
2022/12/26 02:37:31;;;;;;;2.43;2.23;;;;;;;20.17;48.04;97547.16;4985949;28;20274;-93
2022/12/26 02:40:16;;;;;;;2.60;2.40;;;;;;;20.17;47.88;97545.47;4981974;28;20216;-93
2022/12/26 02:43:00;;;;;;;2.80;2.60;;;;;;;20.16;47.83;97547.97;4976545;28;20194;-92
2022/12/26 02:48:46;;;;;;;2.60;2.40;;;;;;;20.16;47.94;97541.16;4989485;28;20189;-94
2022/12/26 03:15:18;;;;;;;2.80;2.60;;;;;;;18.62;48.08;97315.44;4992751;28;20179;-93
2022/12/26 03:18:03;;;;;;;2.67;2.47;;;;;;;18.39;47.77;97278.13;4950103;28;20238;-92
2022/12/26 03:20:30;;;;;;;2.67;2.47;;;;;;;17.73;47.91;97143.31;4961530;28;20207;-94
2022/12/26 03:22:59;;;;;;;2.50;2.30;;;;;;;19.28;47.99;97411.34;4970351;28;20187;-93
2022/12/26 03:28:23;;;;;;;2.33;2.13;;;;;;;18.01;47.66;97182.56;4986903;28;20191;-94
2022/12/26 03:30:50;;;;;;;2.30;2.10;;;;;;;18.27;47.96;97244.56;4946043;28;20243;-92
2022/12/26 03:36:19;;;;;;;2.50;2.30;;;;;;;18.32;47.77;97247.28;4984575;28;20208;-94
2022/12/26 03:38:54;;;;;;;2.20;2.10;;;;;;;18.55;47.80;97274.44;4955225;28;20211;-95
2022/12/26 04:19:48;;;;;;;2.40;2.20;;;;;;;20.17;47.78;97593.97;4970008;28;20204;-94
2022/12/26 04:45:51;;;;;;;2.20;2.00;;;;;;;18.74;47.66;97341.38;4989761;28;20184;-92
2022/12/26 04:51:03;;;;;;;2.50;2.30;;;;;;;18.29;47.71;97292.94;4973244;28;20204;-94
2022/12/26 04:53:29;;;;;;;2.23;2.07;;;;;;;18.51;47.76;97333.69;4999853;28;20187;-94
2022/12/26 04:55:56;;;;;;;2.00;1.90;;;;;;;17.90;47.71;97186.38;4976261;28;20196;-92
2022/12/26 04:58:25;;;;;;;2.10;2.00;;;;;;;19.19;48.04;97422.00;4992134;28;20234;-93
2022/12/26 05:09:32;;;;;;;2.43;2.23;;;;;;;18.70;47.65;97320.81;4972758;28;20242;-93
2022/12/26 05:11:55;;;;;;;2.40;2.20;;;;;;;17.77;47.79;97160.41;4971956;28;20236;-92
2022/12/26 05:14:21;;;;;;;2.47;2.27;;;;;;;18.12;47.88;97211.78;4970385;28;20208;-94
2022/12/26 05:31:03;;;;;;;2.37;2.17;;;;;;;18.40;48.00;97291.69;4899327;29;20208;-93
2022/12/26 05:36:15;;;;;;;2.00;1.90;;;;;;;19.37;47.85;97478.78;4961459;28;20188;-93
2022/12/26 05:38:42;;;;;;;2.20;2.00;;;;;;;18.55;47.74;97349.13;4968651;28;20219;-93
2022/12/26 05:41:08;;;;;;;2.00;1.90;;;;;;;19.05;47.82;97417.22;4963588;28;20199;-94
2022/12/26 05:43:35;;;;;;;2.37;2.17;;;;;;;18.40;47.05;97310.38;4958289;28;20173;-94
2022/12/26 05:46:02;;;;;;;1.93;1.83;;;;;;;19.09;47.86;97445.41;4982051;28;20206;-93
2022/12/26 05:48:28;;;;;;;2.30;2.10;;;;;;;19.18;47.87;97457.59;4985784;28;20184;-95
2022/12/26 05:50:59;;;;;;;2.30;2.10;;;;;;;19.81;47.80;97560.28;4970479;28;20208;-93
2022/12/26 05:53:26;;;;;;;2.30;2.10;;;;;;;18.09;47.66;97262.53;4957186;28;20197;-93
2022/12/26 05:55:53;;;;;;;1.87;1.77;;;;;;;18.51;47.84;97318.41;4981556;28;20208;-92
2022/12/26 05:58:20;;;;;;;2.17;2.07;;;;;;;18.39;47.74;97321.38;4994460;28;20247;-94
2022/12/26 06:00:47;;;;;;;2.20;2.10;;;;;;;18.40;48.06;97301.88;4983539;28;20212;-94
2022/12/26 06:03:13;;;;;;;1.87;1.77;;;;;;;18.78;47.53;97378.00;4948948;28;20184;-95
2022/12/26 06:05:40;;;;;;;2.00;1.90;;;;;;;18.85;47.93;97378.28;4962944;28;20175;-93
2022/12/26 06:08:07;;;;;;;2.27;2.07;;;;;;;19.19;47.87;97433.88;4981596;28;20251;-93
2022/12/26 06:10:34;;;;;;;2.10;2.00;;;;;;;18.95;47.92;97384.59;4965852;28;20200;-93
2022/12/26 06:13:00;;;;;;;1.93;1.83;;;;;;;19.29;47.96;97446.19;4973284;28;20200;-94
2022/12/26 06:15:27;;;;;;;2.00;1.90;;;;;;;19.24;47.59;97434.91;4992569;28;20187;-93
2022/12/26 06:17:54;;;;;;;2.17;2.07;;;;;;;19.29;47.51;97441.06;4965791;28;20180;-91
2022/12/26 06:20:21;;;;;;;2.10;2.00;;;;;;;19.56;47.94;97487.97;4983593;28;20227;-93
2022/12/26 06:22:47;;;;;;;2.23;2.03;;;;;;;18.64;47.65;97318.94;4984294;28;20262;-93
2022/12/26 06:25:14;;;;;;;1.93;1.83;;;;;;;19.09;47.90;97404.66;4964597;28;20187;-94
2022/12/26 06:27:41;;;;;;;2.23;2.03;;;;;;;19.32;48.01;97429.34;4990012;28;20180;-94
2022/12/26 06:30:08;;;;;;;1.97;1.87;;;;;;;19.32;47.70;97428.44;4965921;28;20204;-94
2022/12/26 06:32:38;;;;;;;1.83;1.73;;;;;;;18.88;47.91;97358.03;4965149;28;20186;-94
2022/12/26 06:35:05;;;;;;;2.40;2.20;;;;;;;19.22;47.98;97416.16;4963698;28;20176;-92
2022/12/26 06:37:32;;;;;;;2.03;1.93;;;;;;;19.32;47.53;97434.44;4979306;28;20249;-94
2022/12/26 06:39:58;;;;;;;2.00;1.90;;;;;;;18.49;47.36;97285.28;4947071;28;20224;-93
2022/12/26 06:42:25;;;;;;;2.23;2.03;;;;;;;19.60;47.62;97492.38;4978366;28;20191;-96
2022/12/26 06:44:52;;;;;;;1.90;1.80;;;;;;;18.96;47.82;97376.13;4965160;28;20221;-95
2022/12/26 06:47:19;;;;;;;2.10;2.00;;;;;;;19.12;47.76;97404.75;4981322;28;20200;-93
2022/12/26 06:49:45;;;;;;;2.30;2.10;;;;;;;18.41;48.19;97309.56;4970726;28;20204;-93
2022/12/26 06:52:13;;;;;;;1.93;1.83;;;;;;;18.81;47.85;97332.28;4987143;28;20271;-94
2022/12/26 06:54:40;;;;;;;2.43;2.23;;;;;;;19.26;47.84;97428.19;4981173;28;20184;-93
2022/12/26 06:57:07;;;;;;;2.13;2.03;;;;;;;19.19;47.70;97411.81;4954982;28;20179;-94
2022/12/26 06:59:33;;;;;;;1.80;1.70;;;;;;;19.15;47.91;97404.00;4980839;28;20284;-93
2022/12/26 07:02:00;;;;;;;2.13;2.03;;;;;;;19.58;48.00;97474.47;4977171;28;20188;-95
2022/12/26 07:04:27;;;;;;;2.00;1.80;;;;;;;19.25;47.48;97442.63;4970420;28;20215;-94
2022/12/26 07:06:53;;;;;;;2.10;1.90;;;;;;;19.13;47.73;97411.59;4970165;28;20228;-94
2022/12/26 07:09:21;;;;;;;2.20;1.90;;;;;;;19.63;48.02;97495.03;4959760;28;20188;-92
2022/12/26 07:11:55;;;;;;;1.70;1.60;;;;;;;19.34;48.28;97452.31;4995925;28;20183;-92
2022/12/26 07:14:21;;;;;;;1.80;1.70;;;;;;;19.12;48.17;97417.50;4975394;28;20182;-94
2022/12/26 07:16:48;;;;;;;2.20;2.00;;;;;;;19.38;48.19;97454.16;4993348;23;20231;-92
2022/12/26 07:19:15;;;;;;;2.00;1.90;;;;;;;17.60;47.93;97148.72;4958537;28;20298;-90
2022/12/26 07:21:41;;;;;;;2.30;2.10;;;;;;;19.76;48.05;97553.28;4963475;28;20264;-91
2022/12/26 07:24:16;;;;;;;3.53;3.00;;;;;;;13.91;47.86;96507.75;4930952;29;20238;-89
2022/12/26 07:26:43;;;;;;;3.90;3.50;;;;;;;15.09;47.56;96712.47;4965254;28;20259;-89
2022/12/26 07:29:10;;;;;;;3.53;3.27;;;;;;;14.42;46.97;96654.00;4951680;28;20198;-90
2022/12/26 07:31:37;;;;;;;4.17;3.87;;;;;;;15.31;46.54;96817.16;4938644;29;20265;-89
2022/12/26 07:34:04;;;;;;;4.10;3.80;;;;;;;11.66;46.26;96265.56;4926186;29;20211;-89
2022/12/26 07:36:31;;;;;;;4.00;3.57;;;;;;;12.15;46.42;96259.47;4926402;29;20708;-89
2022/12/26 07:38:57;;;;;;;5.00;4.50;;;;;;;18.01;45.82;97284.25;4933225;29;20220;-89
2022/12/26 07:44:09;;;;;;;5.30;4.80;;;;;;;14.40;46.18;96630.34;4945200;29;20205;-88
2022/12/26 07:46:36;;;;;;;5.93;5.43;;;;;;;13.83;45.57;96530.94;4941552;29;20224;-90
2022/12/26 07:49:03;;;;;;;6.90;5.80;;;;;;;15.90;45.02;96899.06;4925401;29;20201;-88
2022/12/26 07:51:29;;;;;;;6.37;5.77;;;;;;;15.18;45.18;96773.56;4944432;29;20607;-89
2022/12/26 07:53:56;;;;;;;6.60;6.00;;;;;;;19.15;45.38;97488.94;4922599;29;20244;-88
2022/12/26 07:56:23;;;;;;;6.90;6.20;;;;;;;18.82;45.60;97410.38;4938619;29;20224;-90
2022/12/26 07:58:50;;;;;;;6.87;6.17;;;;;;;18.78;45.65;97434.00;4936224;29;20600;-89
2022/12/26 08:01:16;;;;;;;6.57;5.90;;;;;;;17.89;45.69;97260.88;4940564;29;20237;-89
2022/12/26 08:03:43;;;;;;;6.80;6.10;;;;;;;15.14;45.88;96835.84;4937722;29;20235;-89
2022/12/26 08:06:10;;;;;;;6.73;6.00;;;;;;;16.89;45.96;97104.34;4938398;29;20569;-89
2022/12/26 08:08:37;;;;;;;6.30;5.40;;;;;;;14.08;45.82;96581.72;4946169;29;20635;-90
2022/12/26 08:11:05;;;;;;;6.07;5.57;;;;;;;11.72;46.18;96190.34;4925687;29;20260;-89
2022/12/26 08:13:31;;;;;;;5.97;5.40;;;;;;;11.70;46.50;96222.13;4942647;29;20701;-89
2022/12/26 08:15:59;;;;;;;5.40;4.63;;;;;;;17.20;46.28;97123.41;4952160;29;20237;-90
2022/12/26 08:18:26;;;;;;;5.73;5.20;;;;;;;16.65;46.78;97024.72;4945193;29;20204;-89
2022/12/26 08:20:52;;;;;;;4.80;4.37;;;;;;;15.71;46.46;96896.59;4961116;29;20275;-89
2022/12/26 08:23:19;;;;;;;6.20;5.00;;;;;;;18.23;46.32;97292.72;4950309;29;20210;-88
2022/12/26 08:25:46;;;;;;;5.00;4.60;;;;;;;18.63;46.78;97375.75;4950629;28;20721;-91
2022/12/26 08:28:12;;;;;;;4.90;4.40;;;;;;;16.67;46.62;97021.41;4941869;29;20233;-91
2022/12/26 08:30:40;;;;;;;5.70;4.70;;;;;;;15.16;46.77;96763.38;4940345;29;20900;-89
2022/12/26 08:33:06;;;;;;;5.03;4.43;;;;;;;19.72;46.73;97561.66;4946500;28;20249;-89
2022/12/26 08:35:34;;;;;;;5.23;4.53;;;;;;;10.02;47.22;95899.19;4927988;29;20316;-88
2022/12/26 08:38:01;;;;;;;4.90;4.50;;;;;;;19.07;46.95;97458.91;4898530;29;20212;-93
2022/12/26 08:40:27;;;;;;;4.67;4.27;;;;;;;16.67;46.71;97117.81;4926603;29;20692;-89
2022/12/26 08:43:08;;;;;;;6.80;4.60;;;;;;;20.02;46.76;97667.38;4920284;29;20227;-89
2022/12/26 08:46:09;;;;;;;4.80;4.30;;;;;;;15.37;46.83;96846.97;4918345;29;20518;-91
2022/12/26 08:48:37;;;;;;;4.57;4.17;;;;;;;9.21;46.43;95800.78;4946593;28;20772;-92
2022/12/26 08:51:05;;;;;;;4.43;4.03;;;;;;;17.07;46.86;97187.19;4931957;29;20213;-89
2022/12/26 08:53:34;;;;;;;4.60;4.20;;;;;;;16.39;46.71;97003.34;4917805;29;20235;-88
2022/12/26 08:56:02;;;;;;;4.47;3.90;;;;;;;17.93;46.78;97272.03;4937873;29;20230;-89
2022/12/26 08:58:29;;;;;;;4.13;3.73;;;;;;;14.88;46.99;96757.09;4915884;29;20238;-88
2022/12/26 09:01:04;;;;;;;4.50;4.10;;;;;;;18.72;47.05;97373.56;4930689;29;20576;-89
2022/12/26 09:03:30;;;;;;;4.57;4.00;;;;;;;14.98;47.17;96800.56;4932392;28;20634;-90
2022/12/26 09:06:00;;;;;;;4.80;4.23;;;;;;;18.26;47.02;97301.31;4932058;29;20280;-89
2022/12/26 09:08:33;;;;;;;3.90;3.60;;;;;;;14.04;46.74;96577.34;4929202;29;20209;-93
2022/12/26 09:11:04;;;;;;;3.70;3.40;;;;;;;16.08;47.37;96926.84;4929941;29;20205;-89
2022/12/26 09:13:31;;;;;;;4.33;3.60;;;;;;;19.45;47.02;97504.56;4930883;29;20240;-92
2022/12/26 09:16:12;;;;;;;3.70;3.40;;;;;;;20.02;47.12;97617.19;4898820;29;20239;-91
2022/12/26 09:18:38;;;;;;;3.70;3.40;;;;;;;13.37;47.01;96462.47;4933144;28;20209;-92
2022/12/26 09:21:06;;;;;;;3.60;3.30;;;;;;;20.03;46.96;97615.50;4916711;29;20209;-89
2022/12/26 09:23:34;;;;;;;3.90;3.60;;;;;;;19.74;47.23;97557.47;4932392;28;20213;-92
2022/12/26 09:26:10;;;;;;;3.60;3.30;;;;;;;16.91;47.14;97192.47;4910923;29;20303;-89
2022/12/26 09:28:36;;;;;;;3.93;3.63;;;;;;;19.48;47.02;97523.34;4914315;29;20212;-93
2022/12/26 09:31:05;;;;;;;3.43;3.13;;;;;;;17.30;47.37;97196.63;4925851;29;20216;-91
2022/12/26 09:33:32;;;;;;;3.87;3.40;;;;;;;16.21;47.08;96954.41;4927567;29;20264;-89
2022/12/26 09:35:59;;;;;;;4.00;3.60;;;;;;;15.16;46.97;96798.81;4922887;29;20233;-87
2022/12/26 09:38:31;;;;;;;3.80;3.50;;;;;;;20.06;47.05;97660.66;4939812;29;20240;-91
2022/12/26 09:41:24;;;;;;;4.77;3.70;;;;;;;19.38;47.26;97495.81;4937528;29;20208;-89
2022/12/26 09:44:03;;;;;;;4.50;3.50;;;;;;;20.05;47.28;97615.56;4943855;29;20272;-89
2022/12/26 09:46:40;;;;;;;3.90;3.60;;;;;;;15.88;47.03;97067.03;4954167;28;20826;-90
2022/12/26 09:49:20;;;;;;;3.53;3.23;;;;;;;20.04;47.24;97619.78;4938375;28;20288;-89
2022/12/26 09:51:53;;;;;;;3.70;3.20;;;;;;;19.61;47.10;97532.34;4940224;29;20238;-89
2022/12/26 09:54:38;;;;;;;3.77;3.40;;;;;;;18.09;47.23;97272.69;4924145;29;20585;-89
2022/12/26 09:57:15;;;;;;;3.57;3.27;;;;;;;13.76;46.65;96531.47;4938794;29;20227;-90
2022/12/26 09:59:46;;;;;;;3.70;3.37;;;;;;;17.98;47.27;97258.72;4937824;29;20232;-87
2022/12/26 10:02:22;;;;;;;3.50;3.20;;;;;;;15.33;46.70;96891.53;4936926;29;20253;-92
2022/12/26 10:04:50;;;;;;;3.43;3.13;;;;;;;20.02;47.43;97609.53;4922588;29;20584;-89
2022/12/26 10:07:38;;;;;;;3.63;3.33;;;;;;;20.03;47.42;97607.84;4936629;29;20343;-89
2022/12/26 10:10:09;;;;;;;3.07;2.87;;;;;;;20.04;47.19;97608.75;4936064;29;20197;-91
2022/12/26 10:12:47;;;;;;;3.50;3.20;;;;;;;20.04;47.42;97594.28;4936503;29;20284;-89
2022/12/26 10:15:32;;;;;;;3.30;3.00;;;;;;;20.04;47.01;97593.44;4936234;29;20212;-89
2022/12/26 10:18:37;;;;;;;3.10;2.90;;;;;;;20.04;47.34;97599.38;4937444;29;20676;-89
2022/12/26 10:21:12;;;;;;;3.50;3.20;;;;;;;20.04;47.18;97596.00;4935606;29;20300;-88
2022/12/26 10:24:04;;;;;;;3.40;3.10;;;;;;;18.32;47.24;97328.69;4939415;29;20272;-89
2022/12/26 10:26:33;;;;;;;3.17;2.90;;;;;;;14.90;47.18;96794.31;4936386;29;20256;-92
2022/12/26 10:29:09;;;;;;;3.37;3.03;;;;;;;20.05;47.37;97613.91;4935886;29;20304;-91
2022/12/26 10:31:47;;;;;;;3.10;2.90;;;;;;;20.06;47.34;97607.09;4936394;29;20208;-89
2022/12/26 10:34:43;;;;;;;3.30;3.00;;;;;;;17.90;47.38;97231.25;4937405;29;20219;-88
2022/12/26 10:37:34;;;;;;;3.10;2.80;;;;;;;20.06;47.50;97607.97;4933634;29;20252;-89
2022/12/26 10:40:06;;;;;;;3.37;3.07;;;;;;;20.05;47.50;97601.16;4936512;29;20224;-90
2022/12/26 10:42:36;;;;;;;3.40;3.13;;;;;;;20.04;47.46;97607.03;4935937;29;20213;-89
2022/12/26 10:45:15;;;;;;;3.30;3.00;;;;;;;20.04;47.44;97601.94;4924221;29;20255;-88
2022/12/26 10:47:43;;;;;;;3.00;2.80;;;;;;;17.09;47.35;97098.41;4938090;29;20219;-89
2022/12/26 10:50:18;;;;;;;3.27;2.77;;;;;;;15.37;47.33;96864.69;4939830;29;20204;-89
2022/12/26 10:52:52;;;;;;;3.20;2.90;;;;;;;19.10;47.42;97484.50;4922399;29;20215;-89
2022/12/26 10:55:22;;;;;;;3.23;2.93;;;;;;;20.02;47.46;97618.88;4936002;29;20221;-88
2022/12/26 10:57:57;;;;;;;2.70;2.50;;;;;;;14.50;47.29;96665.31;4935701;29;20657;-87
2022/12/26 11:00:25;;;;;;;3.30;3.00;;;;;;;18.27;47.49;97334.44;4939314;28;20319;-90
2022/12/26 11:03:02;;;;;;;3.03;2.63;;;;;;;20.02;47.53;97627.38;4925707;29;20216;-90
2022/12/26 11:05:29;;;;;;;2.90;2.70;;;;;;;17.81;47.66;97353.78;4934514;29;20665;-89
2022/12/26 11:08:37;;;;;;;3.00;2.80;;;;;;;18.02;47.42;97319.03;4925280;29;20264;-90
2022/12/26 11:11:20;;;;;;;2.97;2.73;;;;;;;19.13;47.34;97464.22;4936637;29;20260;-89
2022/12/26 11:13:50;;;;;;;2.80;2.60;;;;;;;19.54;47.49;97545.69;4944370;28;20702;-89
2022/12/26 11:16:34;;;;;;;3.53;3.23;;;;;;;19.39;47.52;97519.63;4941295;29;20225;-89
2022/12/26 11:19:01;;;;;;;3.17;2.87;;;;;;;20.04;47.95;97617.25;4942705;29;20220;-89
2022/12/26 11:21:28;;;;;;;2.93;2.73;;;;;;;18.33;47.47;97391.47;4940409;29;20241;-89
2022/12/26 11:24:24;;;;;;;2.70;2.50;;;;;;;20.05;47.44;97613.91;4925582;29;20215;-89
2022/12/26 11:26:51;;;;;;;3.10;2.80;;;;;;;18.95;47.84;97440.63;4954612;28;20228;-90
2022/12/26 11:29:22;;;;;;;2.80;2.60;;;;;;;15.37;47.52;96809.00;4922819;29;20208;-89
2022/12/26 11:31:59;;;;;;;3.50;3.20;;;;;;;20.06;47.34;97628.38;4940377;29;20657;-89
2022/12/26 11:34:33;;;;;;;3.20;3.00;;;;;;;20.06;47.79;97625.84;4941198;29;20592;-90
2022/12/26 11:37:00;;;;;;;2.63;2.43;;;;;;;16.55;47.42;97012.47;4941881;29;20308;-89
2022/12/26 11:39:29;;;;;;;2.50;2.30;;;;;;;17.67;47.42;97262.50;4957092;28;20244;-88
2022/12/26 11:41:55;;;;;;;2.97;2.77;;;;;;;18.33;47.50;97333.81;4938005;29;20215;-89
2022/12/26 11:44:26;;;;;;;3.13;2.87;;;;;;;19.51;47.38;97594.00;4940679;29;20211;-89
2022/12/26 11:46:57;;;;;;;2.73;2.53;;;;;;;20.06;47.02;97650.47;4942627;29;20265;-89
2022/12/26 11:49:37;;;;;;;2.90;2.70;;;;;;;20.06;47.54;97648.78;4943362;29;20201;-89
2022/12/26 11:52:36;;;;;;;2.90;2.70;;;;;;;20.06;47.46;97650.47;4946051;29;20204;-91
2022/12/26 11:55:21;;;;;;;3.00;2.80;;;;;;;20.05;47.34;97659.81;4940208;29;20220;-89
2022/12/26 11:58:13;;;;;;;2.77;2.57;;;;;;;19.39;47.50;97556.16;4938069;29;20699;-89
2022/12/26 12:00:42;;;;;;;2.57;2.37;;;;;;;16.93;47.55;97146.84;4935831;29;20312;-89
2022/12/26 12:03:13;;;;;;;2.53;2.33;;;;;;;20.05;47.38;97687.00;4943670;29;20307;-88
2022/12/26 12:05:49;;;;;;;2.57;2.37;;;;;;;20.03;47.42;97689.50;4932630;29;20231;-87
2022/12/26 12:08:34;;;;;;;2.87;2.67;;;;;;;20.05;47.63;97690.44;4943458;29;20204;-90
2022/12/26 12:11:21;;;;;;;2.93;2.73;;;;;;;20.04;47.49;97682.72;4948409;29;20209;-87
2022/12/26 12:14:09;;;;;;;2.80;2.60;;;;;;;17.49;47.49;97252.47;4945453;29;20223;-88
2022/12/26 12:16:47;;;;;;;2.70;2.50;;;;;;;18.23;47.42;97383.47;4938169;29;20233;-89
2022/12/26 12:19:32;;;;;;;2.80;2.60;;;;;;;20.05;47.53;97687.00;4917598;29;20208;-89
2022/12/26 12:22:23;;;;;;;3.17;2.87;;;;;;;20.06;47.71;97675.97;4946603;28;20276;-85
2022/12/26 12:25:10;;;;;;;2.87;2.60;;;;;;;17.46;47.48;97279.41;4930840;29;20217;-90
2022/12/26 12:28:22;;;;;;;3.30;3.00;;;;;;;19.74;47.60;97639.06;4930455;29;21206;-91
2022/12/26 12:31:16;;;;;;;2.80;2.60;;;;;;;18.75;47.35;97452.59;4899725;29;20291;-90
2022/12/26 12:34:00;;;;;;;3.20;3.00;;;;;;;20.06;47.62;97687.06;4927758;29;20205;-89
2022/12/26 12:36:45;;;;;;;2.83;2.63;;;;;;;11.96;47.54;96272.00;4928777;29;20229;-89
2022/12/26 12:39:34;;;;;;;3.37;3.07;;;;;;;19.41;47.57;97562.19;4929337;28;20289;-88
2022/12/26 12:42:07;;;;;;;3.13;2.83;;;;;;;20.06;47.63;97678.53;4927729;29;20660;-90
2022/12/26 12:44:46;;;;;;;3.23;2.93;;;;;;;16.04;47.41;97079.56;4929940;29;20217;-90
2022/12/26 12:47:41;;;;;;;3.10;2.80;;;;;;;20.05;47.54;97667.47;4928891;29;20277;-89
2022/12/26 12:50:29;;;;;;;3.60;3.30;;;;;;;20.06;47.47;97669.19;4931945;29;20932;-89
2022/12/26 12:53:05;;;;;;;3.37;3.07;;;;;;;13.41;47.96;96512.25;4939971;28;20213;-89
2022/12/26 12:55:37;;;;;;;3.20;2.90;;;;;;;11.78;47.72;96283.75;4934023;29;20224;-89
2022/12/26 12:58:11;;;;;;;3.90;3.50;;;;;;;17.50;48.03;97277.06;4932797;29;20205;-88
2022/12/26 13:00:43;;;;;;;3.10;2.90;;;;;;;16.98;47.52;97245.22;4940872;28;20597;-88
2022/12/26 13:03:26;;;;;;;3.40;3.10;;;;;;;20.03;47.50;97702.25;4941798;29;20209;-88
2022/12/26 13:06:05;;;;;;;3.63;3.33;;;;;;;17.42;47.53;97369.84;4930268;29;20228;-89
2022/12/26 13:08:40;;;;;;;3.10;2.80;;;;;;;20.04;47.54;97665.72;4939261;29;20201;-89
2022/12/26 13:11:19;;;;;;;3.03;2.80;;;;;;;18.40;47.55;97418.91;4940136;29;20204;-90
2022/12/26 13:13:55;;;;;;;3.83;3.30;;;;;;;18.76;47.57;97445.78;4921065;29;20212;-92
2022/12/26 13:16:24;;;;;;;3.50;3.20;;;;;;;13.28;47.48;96496.50;4944394;29;20263;-86
2022/12/26 13:19:03;;;;;;;3.20;2.90;;;;;;;19.20;47.62;97517.13;4975458;23;20207;-93
2022/12/26 13:21:48;;;;;;;2.97;2.77;;;;;;;18.72;47.45;97421.03;5002370;28;20290;-93
2022/12/26 13:24:24;;;;;;;3.30;3.00;;;;;;;20.06;47.70;97627.50;5028225;28;20189;-92
2022/12/26 13:27:01;;;;;;;3.17;2.90;;;;;;;18.65;47.45;97389.38;5029807;28;20200;-94
2022/12/26 13:29:34;;;;;;;3.10;2.90;;;;;;;20.07;47.71;97619.91;5010460;28;20225;-93
2022/12/26 13:32:03;;;;;;;3.33;3.10;;;;;;;18.97;47.62;97469.53;5027949;28;20197;-93
2022/12/26 13:34:30;;;;;;;3.07;2.87;;;;;;;19.29;47.74;97499.69;5009551;28;20271;-93
2022/12/26 13:36:58;;;;;;;3.07;2.87;;;;;;;20.07;47.69;97639.47;5017471;28;20190;-94
2022/12/26 13:39:24;;;;;;;3.20;2.90;;;;;;;20.08;47.69;97636.09;4996893;28;20225;-94
2022/12/26 13:44:53;;;;;;;3.37;3.07;;;;;;;19.62;47.66;97562.09;5009462;28;20197;-94
2022/12/26 13:47:33;;;;;;;3.00;2.80;;;;;;;19.69;47.75;97577.69;5016009;28;20205;-94
2022/12/26 13:50:37;;;;;;;3.20;2.90;;;;;;;20.07;47.80;97639.47;5005515;28;20233;-94
2022/12/26 13:53:24;;;;;;;3.13;2.80;;;;;;;18.76;47.79;97416.13;5004736;28;20211;-93
2022/12/26 13:56:01;;;;;;;3.20;2.90;;;;;;;18.71;47.50;97445.63;5009130;28;20202;-93
2022/12/26 13:59:07;;;;;;;3.13;2.87;;;;;;;19.33;47.68;97561.00;4978688;28;20178;-94
2022/12/26 14:01:36;;;;;;;3.03;2.73;;;;;;;20.06;47.79;97675.97;4938118;28;20224;-93
2022/12/26 14:04:41;;;;;;;3.00;2.70;;;;;;;20.04;47.72;97665.72;4990619;28;20206;-94
2022/12/26 14:07:26;;;;;;;3.30;3.00;;;;;;;20.04;47.64;97659.75;5027921;28;20193;-94
2022/12/26 14:10:20;;;;;;;3.50;3.20;;;;;;;20.05;47.60;97682.78;5007808;28;20209;-92
2022/12/26 14:13:04;;;;;;;3.27;2.97;;;;;;;20.05;47.68;97676.81;5010601;28;20209;-93
2022/12/26 14:15:52;;;;;;;3.03;2.77;;;;;;;20.05;47.70;97672.56;5003749;28;20202;-93